createdAt,value
2018-01-21T00:00:02.331Z,5.8
2018-01-21T00:00:28.435Z,5.79
2018-01-21T00:00:54.530Z,5.84
2018-01-21T00:01:20.644Z,5.99
2018-01-21T00:01:46.748Z,5.97
2018-01-21T00:02:12.862Z,5.93
2018-01-21T00:02:38.961Z,5.87
2018-01-21T00:03:05.062Z,6.02
2018-01-21T00:03:31.159Z,5.94
2018-01-21T00:03:57.267Z,5.97
2018-01-21T00:04:23.368Z,6.01
2018-01-21T00:04:49.473Z,5.91
2018-01-21T00:05:15.591Z,5.99
2018-01-21T00:05:41.695Z,5.87
2018-01-21T00:06:07.793Z,5.87
2018-01-21T00:06:33.913Z,5.87
2018-01-21T00:07:00.025Z,5.89
2018-01-21T00:07:26.123Z,5.98
2018-01-21T00:07:52.220Z,5.83
2018-01-21T00:08:18.318Z,5.9
2018-01-21T00:08:44.421Z,5.75
2018-01-21T00:09:10.519Z,5.8
2018-01-21T00:09:36.621Z,5.84
2018-01-21T00:10:02.738Z,5.79
2018-01-21T00:10:28.836Z,5.8
2018-01-21T00:10:54.945Z,5.8
2018-01-21T00:11:21.040Z,5.75
2018-01-21T00:11:47.147Z,5.79
2018-01-21T00:12:13.248Z,5.76
2018-01-21T00:12:39.344Z,5.87
2018-01-21T00:13:05.464Z,5.99
2018-01-21T00:13:31.586Z,5.99
2018-01-21T00:13:57.701Z,6.02
2018-01-21T00:14:23.806Z,5.94
2018-01-21T00:14:49.918Z,6.01
2018-01-21T00:15:16.024Z,5.99
2018-01-21T00:15:42.124Z,5.98
2018-01-21T00:16:08.220Z,5.91
2018-01-21T00:16:34.325Z,5.93
2018-01-21T00:17:00.427Z,5.76
2018-01-21T00:17:26.531Z,5.83
2018-01-21T00:17:52.630Z,5.75
2018-01-21T00:18:18.733Z,5.69
2018-01-21T00:18:44.834Z,5.73
2018-01-21T00:19:10.955Z,5.75
2018-01-21T00:19:37.030Z,5.75
2018-01-21T00:20:03.135Z,5.73
2018-01-21T00:20:29.236Z,5.73
2018-01-21T00:20:55.331Z,5.86
2018-01-21T00:21:21.437Z,5.83
2018-01-21T00:21:47.532Z,5.9
2018-01-21T00:22:13.654Z,5.87
2018-01-21T00:22:39.751Z,5.93
2018-01-21T00:23:05.857Z,5.87
2018-01-21T00:23:31.954Z,5.91
2018-01-21T00:23:58.056Z,6.04
2018-01-21T00:24:24.154Z,6.01
2018-01-21T00:24:50.257Z,5.98
2018-01-21T00:25:16.369Z,5.97
2018-01-21T00:25:42.477Z,6.09
2018-01-21T00:26:08.582Z,6.04
2018-01-21T00:26:34.695Z,6.07
2018-01-21T00:27:00.832Z,6.12
2018-01-21T00:27:26.933Z,6.07
2018-01-21T00:27:53.038Z,6.14
2018-01-21T00:28:19.137Z,6.04
2018-01-21T00:28:45.231Z,6.01
2018-01-21T00:29:11.331Z,6.05
2018-01-21T00:29:37.434Z,6.05
2018-01-21T00:30:03.542Z,6.19
2018-01-21T00:30:29.639Z,6.04
2018-01-21T00:30:55.760Z,6.04
2018-01-21T00:31:21.859Z,5.94
2018-01-21T00:31:47.955Z,5.89
2018-01-21T00:32:14.061Z,5.89
2018-01-21T00:32:40.162Z,5.87
2018-01-21T00:33:06.262Z,5.89
2018-01-21T00:33:32.378Z,5.89
2018-01-21T00:33:58.480Z,5.91
2018-01-21T00:34:24.580Z,6.04
2018-01-21T00:34:50.678Z,5.94
2018-01-21T00:35:16.783Z,6.01
2018-01-21T00:35:42.880Z,6.11
2018-01-21T00:36:08.987Z,6.09
2018-01-21T00:36:35.103Z,6.08
2018-01-21T00:37:01.198Z,6.14
2018-01-21T00:37:27.303Z,6.14
2018-01-21T00:37:53.405Z,6.3
2018-01-21T00:38:19.500Z,6.12
2018-01-21T00:38:45.599Z,6.11
2018-01-21T00:39:11.706Z,6.14
2018-01-21T00:39:37.808Z,6.16
2018-01-21T00:40:03.908Z,6.19
2018-01-21T00:40:30.007Z,6.28
2018-01-21T00:40:56.112Z,6.22
2018-01-21T00:41:22.214Z,6.24
2018-01-21T00:41:48.308Z,6.27
2018-01-21T00:42:14.405Z,6.26
2018-01-21T00:42:40.514Z,6.31
2018-01-21T00:43:06.611Z,6.22
2018-01-21T00:43:32.715Z,6.24
2018-01-21T00:43:58.818Z,6.14
2018-01-21T00:44:24.917Z,6.17
2018-01-21T00:44:51.012Z,6.17
2018-01-21T00:45:17.115Z,6.22
2018-01-21T00:45:43.214Z,6.09
2018-01-21T00:46:09.324Z,6.07
2018-01-21T00:46:35.422Z,6.11
2018-01-21T00:47:01.519Z,6.12
2018-01-21T00:47:27.623Z,6.09
2018-01-21T00:47:53.721Z,6.07
2018-01-21T00:48:19.854Z,6.02
2018-01-21T00:48:45.959Z,6.07
2018-01-21T00:49:12.055Z,6.04
2018-01-21T00:49:38.160Z,5.98
2018-01-21T00:50:04.261Z,6.01
2018-01-21T00:50:30.362Z,6.04
2018-01-21T00:50:56.464Z,6.02
2018-01-21T00:51:22.579Z,6.02
2018-01-21T00:51:48.699Z,5.99
2018-01-21T00:52:14.813Z,6.05
2018-01-21T00:52:40.914Z,5.98
2018-01-21T00:53:07.018Z,6.05
2018-01-21T00:53:33.114Z,6.04
2018-01-21T00:53:59.218Z,5.98
2018-01-21T00:54:25.325Z,6.04
2018-01-21T00:54:51.439Z,6.08
2018-01-21T00:55:17.533Z,5.98
2018-01-21T00:55:43.640Z,5.97
2018-01-21T00:56:09.753Z,5.86
2018-01-21T00:56:35.850Z,6.04
2018-01-21T00:57:01.949Z,5.99
2018-01-21T00:57:28.058Z,6.08
2018-01-21T00:57:54.158Z,6.02
2018-01-21T00:58:20.258Z,6.09
2018-01-21T00:58:46.365Z,6.12
2018-01-21T00:59:12.466Z,6.12
2018-01-21T00:59:38.564Z,6.12
2018-01-21T01:00:04.665Z,6.14
2018-01-21T01:00:30.761Z,6.2
2018-01-21T01:00:56.868Z,6.07
2018-01-21T01:01:22.967Z,6.12
2018-01-21T01:01:49.072Z,6.08
2018-01-21T01:02:15.166Z,6.05
2018-01-21T01:02:41.263Z,6.01
2018-01-21T01:03:07.368Z,5.97
2018-01-21T01:03:33.472Z,6.01
2018-01-21T01:03:59.570Z,6.04
2018-01-21T01:04:25.679Z,6.04
2018-01-21T01:04:51.775Z,5.99
2018-01-21T01:05:17.875Z,6.02
2018-01-21T01:05:43.973Z,5.99
2018-01-21T01:06:10.076Z,6.05
2018-01-21T01:06:36.175Z,5.98
2018-01-21T01:07:02.278Z,5.91
2018-01-21T01:07:28.378Z,5.98
2018-01-21T01:07:54.480Z,5.9
2018-01-21T01:08:20.587Z,5.89
2018-01-21T01:08:46.686Z,5.9
2018-01-21T01:09:12.781Z,5.86
2018-01-21T01:09:38.888Z,5.82
2018-01-21T01:10:04.984Z,5.8
2018-01-21T01:10:31.088Z,5.8
2018-01-21T01:10:57.183Z,5.9
2018-01-21T01:11:23.286Z,5.97
2018-01-21T01:11:49.424Z,5.91
2018-01-21T01:12:15.493Z,5.9
2018-01-21T01:12:41.589Z,5.93
2018-01-21T01:13:07.696Z,5.9
2018-01-21T01:13:33.798Z,6.01
2018-01-21T01:13:59.894Z,5.98
2018-01-21T01:14:26.000Z,6.01
2018-01-21T01:14:52.098Z,6.01
2018-01-21T01:15:18.197Z,5.93
2018-01-21T01:15:44.300Z,5.94
2018-01-21T01:16:10.396Z,5.99
2018-01-21T01:16:36.501Z,5.91
2018-01-21T01:17:02.603Z,5.91
2018-01-21T01:17:28.702Z,5.89
2018-01-21T01:17:54.805Z,5.97
2018-01-21T01:18:20.905Z,5.94
2018-01-21T01:18:47.005Z,6.04
2018-01-21T01:19:13.105Z,5.91
2018-01-21T01:19:39.208Z,5.97
2018-01-21T01:20:05.524Z,5.97
2018-01-21T01:20:31.623Z,6.01
2018-01-21T01:20:57.728Z,5.98
2018-01-21T01:21:23.822Z,6.02
2018-01-21T01:21:49.923Z,6.05
2018-01-21T01:22:16.043Z,6.05
2018-01-21T01:22:42.140Z,6.04
2018-01-21T01:23:08.239Z,6.05
2018-01-21T01:23:34.344Z,6.04
2018-01-21T01:24:00.441Z,6.02
2018-01-21T01:24:26.546Z,6.08
2018-01-21T01:24:52.642Z,6.01
2018-01-21T01:25:18.747Z,6.12
2018-01-21T01:25:44.846Z,6.09
2018-01-21T01:26:10.946Z,6.09
2018-01-21T01:26:37.042Z,6.04
2018-01-21T01:27:03.146Z,6.01
2018-01-21T01:27:29.262Z,6.08
2018-01-21T01:27:55.358Z,6.07
2018-01-21T01:28:21.461Z,6.12
2018-01-21T01:28:47.560Z,6.08
2018-01-21T01:29:13.658Z,6.02
2018-01-21T01:29:39.753Z,6.04
2018-01-21T01:30:05.869Z,6.09
2018-01-21T01:30:31.978Z,6.07
2018-01-21T01:30:58.079Z,6.05
2018-01-21T01:31:24.198Z,5.98
2018-01-21T01:31:50.295Z,5.99
2018-01-21T01:32:16.399Z,5.89
2018-01-21T01:32:42.500Z,5.84
2018-01-21T01:33:08.599Z,5.91
2018-01-21T01:33:34.697Z,6.01
2018-01-21T01:34:00.805Z,6.05
2018-01-21T01:34:26.906Z,6.01
2018-01-21T01:34:53.002Z,6.07
2018-01-21T01:35:19.099Z,6.08
2018-01-21T01:35:45.202Z,5.98
2018-01-21T01:36:11.297Z,6.04
2018-01-21T01:36:37.398Z,6.04
2018-01-21T01:37:03.513Z,5.97
2018-01-21T01:37:29.649Z,5.9
2018-01-21T01:37:55.755Z,5.87
2018-01-21T01:38:21.847Z,5.86
2018-01-21T01:38:47.946Z,5.82
2018-01-21T01:39:14.049Z,5.76
2018-01-21T01:39:40.155Z,5.83
2018-01-21T01:40:06.254Z,5.84
2018-01-21T01:40:32.357Z,5.89
2018-01-21T01:40:58.455Z,5.84
2018-01-21T01:41:24.600Z,5.91
2018-01-21T01:41:50.657Z,5.89
2018-01-21T01:42:16.754Z,5.93
2018-01-21T01:42:42.854Z,5.93
2018-01-21T01:43:08.958Z,5.93
2018-01-21T01:43:35.053Z,5.97
2018-01-21T01:44:01.161Z,5.98
2018-01-21T01:44:27.254Z,5.9
2018-01-21T01:44:53.367Z,5.84
2018-01-21T01:45:19.475Z,5.94
2018-01-21T01:45:45.582Z,5.99
2018-01-21T01:46:11.685Z,5.91
2018-01-21T01:46:37.804Z,5.94
2018-01-21T01:47:03.903Z,6.01
2018-01-21T01:47:30.002Z,5.97
2018-01-21T01:47:56.104Z,5.97
2018-01-21T01:48:22.210Z,5.93
2018-01-21T01:48:48.303Z,5.89
2018-01-21T01:49:14.408Z,5.83
2018-01-21T01:49:40.506Z,5.87
2018-01-21T01:50:06.611Z,6.01
2018-01-21T01:50:32.723Z,5.94
2018-01-21T01:50:58.822Z,5.91
2018-01-21T01:51:24.926Z,5.87
2018-01-21T01:51:51.023Z,5.89
2018-01-21T01:52:17.125Z,5.91
2018-01-21T01:52:43.219Z,5.83
2018-01-21T01:53:09.345Z,5.8
2018-01-21T01:53:35.448Z,5.82
2018-01-21T01:54:01.548Z,5.89
2018-01-21T01:54:27.660Z,5.91
2018-01-21T01:54:53.762Z,5.91
2018-01-21T01:55:19.854Z,5.83
2018-01-21T01:55:45.961Z,5.82
2018-01-21T01:56:12.055Z,5.89
2018-01-21T01:56:38.158Z,5.87
2018-01-21T01:57:04.259Z,5.82
2018-01-21T01:57:30.367Z,5.69
2018-01-21T01:57:56.491Z,5.76
2018-01-21T01:58:22.586Z,5.83
2018-01-21T01:58:48.695Z,5.72
2018-01-21T01:59:14.794Z,5.71
2018-01-21T01:59:40.892Z,5.83
2018-01-21T02:00:06.994Z,5.79
2018-01-21T02:00:33.093Z,5.76
2018-01-21T02:00:59.193Z,5.75
2018-01-21T02:01:25.297Z,5.68
2018-01-21T02:01:51.396Z,5.79
2018-01-21T02:02:17.526Z,5.72
2018-01-21T02:02:43.631Z,5.68
2018-01-21T02:03:09.733Z,5.71
2018-01-21T02:03:35.834Z,5.75
2018-01-21T02:04:01.934Z,5.87
2018-01-21T02:04:28.033Z,5.82
2018-01-21T02:04:54.131Z,5.84
2018-01-21T02:05:20.235Z,5.86
2018-01-21T02:05:46.337Z,5.84
2018-01-21T02:06:12.432Z,5.84
2018-01-21T02:06:38.536Z,5.93
2018-01-21T02:07:04.635Z,5.87
2018-01-21T02:07:30.741Z,5.86
2018-01-21T02:07:56.831Z,5.93
2018-01-21T02:08:22.946Z,5.98
2018-01-21T02:08:49.049Z,5.93
2018-01-21T02:09:15.145Z,5.87
2018-01-21T02:09:41.247Z,5.82
2018-01-21T02:10:07.345Z,5.8
2018-01-21T02:10:33.450Z,5.79
2018-01-21T02:10:59.550Z,5.86
2018-01-21T02:11:25.643Z,5.9
2018-01-21T02:11:51.739Z,5.8
2018-01-21T02:12:17.840Z,5.84
2018-01-21T02:12:43.954Z,5.83
2018-01-21T02:13:10.046Z,5.83
2018-01-21T02:13:36.146Z,5.69
2018-01-21T02:14:02.237Z,5.79
2018-01-21T02:14:28.331Z,5.79
2018-01-21T02:14:54.429Z,5.73
2018-01-21T02:15:20.545Z,5.75
2018-01-21T02:15:46.639Z,5.75
2018-01-21T02:16:12.743Z,5.76
2018-01-21T02:16:38.834Z,5.73
2018-01-21T02:17:04.929Z,5.73
2018-01-21T02:17:31.030Z,5.82
2018-01-21T02:17:57.122Z,5.73
2018-01-21T02:18:23.246Z,5.8
2018-01-21T02:18:49.352Z,5.82
2018-01-21T02:19:15.444Z,5.82
2018-01-21T02:19:41.541Z,5.82
2018-01-21T02:20:07.656Z,5.79
2018-01-21T02:20:33.754Z,5.89
2018-01-21T02:20:59.843Z,5.89
2018-01-21T02:21:25.937Z,5.91
2018-01-21T02:21:52.031Z,5.94
2018-01-21T02:22:18.148Z,5.94
2018-01-21T02:22:44.245Z,5.91
2018-01-21T02:23:10.339Z,5.99
2018-01-21T02:23:36.440Z,6.01
2018-01-21T02:24:02.539Z,5.98
2018-01-21T02:24:28.633Z,5.98
2018-01-21T02:24:54.729Z,5.99
2018-01-21T02:25:20.827Z,5.97
2018-01-21T02:25:46.925Z,5.99
2018-01-21T02:26:13.026Z,5.99
2018-01-21T02:26:39.119Z,6.01
2018-01-21T02:27:05.220Z,5.93
2018-01-21T02:27:31.317Z,5.9
2018-01-21T02:27:57.413Z,5.93
2018-01-21T02:28:23.511Z,5.89
2018-01-21T02:28:49.607Z,5.99
2018-01-21T02:29:15.706Z,5.99
2018-01-21T02:29:41.820Z,5.99
2018-01-21T02:30:07.913Z,6.01
2018-01-21T02:30:34.007Z,6.02
2018-01-21T02:31:00.106Z,6.01
2018-01-21T02:31:26.202Z,6.01
2018-01-21T02:31:52.302Z,5.94
2018-01-21T02:32:18.414Z,5.94
2018-01-21T02:32:44.524Z,5.91
2018-01-21T02:33:10.616Z,6.01
2018-01-21T02:33:36.720Z,6.05
2018-01-21T02:34:02.816Z,6.02
2018-01-21T02:34:28.908Z,6.05
2018-01-21T02:34:55.008Z,6.04
2018-01-21T02:35:21.105Z,6.05
2018-01-21T02:35:47.300Z,6.07
2018-01-21T02:36:13.360Z,6.02
2018-01-21T02:36:39.463Z,6.02
2018-01-21T02:37:05.557Z,6.02
2018-01-21T02:37:31.659Z,6.04
2018-01-21T02:37:57.758Z,6.02
2018-01-21T02:38:23.859Z,5.94
2018-01-21T02:38:49.958Z,6.01
2018-01-21T02:39:16.059Z,6.01
2018-01-21T02:39:42.169Z,6.08
2018-01-21T02:40:08.266Z,6.04
2018-01-21T02:40:34.364Z,6.08
2018-01-21T02:41:00.464Z,6.02
2018-01-21T02:41:26.568Z,6.04
2018-01-21T02:41:52.661Z,5.99
2018-01-21T02:42:18.766Z,5.94
2018-01-21T02:42:44.867Z,5.89
2018-01-21T02:43:10.971Z,5.93
2018-01-21T02:43:37.072Z,5.89
2018-01-21T02:44:03.170Z,5.94
2018-01-21T02:44:29.272Z,6.01
2018-01-21T02:44:55.369Z,6.02
2018-01-21T02:45:21.464Z,6.01
2018-01-21T02:45:47.567Z,6.07
2018-01-21T02:46:13.669Z,6.05
2018-01-21T02:46:39.777Z,6.02
2018-01-21T02:47:05.873Z,5.98
2018-01-21T02:47:31.972Z,5.9
2018-01-21T02:47:58.076Z,5.94
2018-01-21T02:48:24.177Z,5.91
2018-01-21T02:48:50.293Z,6.02
2018-01-21T02:49:16.393Z,6.07
2018-01-21T02:49:42.487Z,5.99
2018-01-21T02:50:08.586Z,6.07
2018-01-21T02:50:34.689Z,5.98
2018-01-21T02:51:00.796Z,6.01
2018-01-21T02:51:26.914Z,6.04
2018-01-21T02:51:53.021Z,6.04
2018-01-21T02:52:19.126Z,5.98
2018-01-21T02:52:45.227Z,5.91
2018-01-21T02:53:11.361Z,5.9
2018-01-21T02:53:37.442Z,5.91
2018-01-21T02:54:03.547Z,5.89
2018-01-21T02:54:29.659Z,5.97
2018-01-21T02:54:55.763Z,5.87
2018-01-21T02:55:21.859Z,5.93
2018-01-21T02:55:47.962Z,5.9
2018-01-21T02:56:14.064Z,5.93
2018-01-21T02:56:40.162Z,5.93
2018-01-21T02:57:06.263Z,6.01
2018-01-21T02:57:32.363Z,5.94
2018-01-21T02:57:58.466Z,6.01
2018-01-21T02:58:24.563Z,5.93
2018-01-21T02:58:50.666Z,5.9
2018-01-21T02:59:16.761Z,5.93
2018-01-21T02:59:42.862Z,5.76
2018-01-21T03:00:08.957Z,5.76
2018-01-21T03:00:35.063Z,5.75
2018-01-21T03:01:01.164Z,5.76
2018-01-21T03:01:27.260Z,5.76
2018-01-21T03:01:53.365Z,5.66
2018-01-21T03:02:19.480Z,5.72
2018-01-21T03:02:45.626Z,5.75
2018-01-21T03:03:11.675Z,5.76
2018-01-21T03:03:37.777Z,5.79
2018-01-21T03:04:03.881Z,5.76
2018-01-21T03:04:29.981Z,5.69
2018-01-21T03:04:56.081Z,5.75
2018-01-21T03:05:22.183Z,5.76
2018-01-21T03:05:48.276Z,5.71
2018-01-21T03:06:14.374Z,5.64
2018-01-21T03:06:40.475Z,5.69
2018-01-21T03:07:06.592Z,5.65
2018-01-21T03:07:32.687Z,5.69
2018-01-21T03:07:58.796Z,5.68
2018-01-21T03:08:24.894Z,5.76
2018-01-21T03:08:50.997Z,5.66
2018-01-21T03:09:17.097Z,5.71
2018-01-21T03:09:43.198Z,5.64
2018-01-21T03:10:09.300Z,5.64
2018-01-21T03:10:35.395Z,5.68
2018-01-21T03:11:01.499Z,5.65
2018-01-21T03:11:27.597Z,5.66
2018-01-21T03:11:53.696Z,5.65
2018-01-21T03:12:19.799Z,5.53
2018-01-21T03:12:45.895Z,5.62
2018-01-21T03:13:11.999Z,5.65
2018-01-21T03:13:38.098Z,5.57
2018-01-21T03:14:04.195Z,5.64
2018-01-21T03:14:30.298Z,5.54
2018-01-21T03:14:56.394Z,5.66
2018-01-21T03:15:22.499Z,5.59
2018-01-21T03:15:48.594Z,5.53
2018-01-21T03:16:14.692Z,5.68
2018-01-21T03:16:40.813Z,5.62
2018-01-21T03:17:06.920Z,5.72
2018-01-21T03:17:33.013Z,5.56
2018-01-21T03:17:59.131Z,5.72
2018-01-21T03:18:25.231Z,5.73
2018-01-21T03:18:51.332Z,5.64
2018-01-21T03:19:17.435Z,5.66
2018-01-21T03:19:43.540Z,5.68
2018-01-21T03:20:09.636Z,5.66
2018-01-21T03:20:35.758Z,5.66
2018-01-21T03:21:01.871Z,5.62
2018-01-21T03:21:27.990Z,5.68
2018-01-21T03:21:54.087Z,5.64
2018-01-21T03:22:20.188Z,5.69
2018-01-21T03:22:46.292Z,5.71
2018-01-21T03:23:12.392Z,5.65
2018-01-21T03:23:38.492Z,5.64
2018-01-21T03:24:04.608Z,5.62
2018-01-21T03:24:30.717Z,5.66
2018-01-21T03:24:56.814Z,5.66
2018-01-21T03:25:22.911Z,5.68
2018-01-21T03:25:49.006Z,5.64
2018-01-21T03:26:15.117Z,5.51
2018-01-21T03:26:41.215Z,5.54
2018-01-21T03:27:07.315Z,5.54
2018-01-21T03:27:33.418Z,5.51
2018-01-21T03:27:59.519Z,5.62
2018-01-21T03:28:25.614Z,5.57
2018-01-21T03:28:51.716Z,5.57
2018-01-21T03:29:17.812Z,5.48
2018-01-21T03:29:43.917Z,5.54
2018-01-21T03:30:10.015Z,5.48
2018-01-21T03:30:36.125Z,5.5
2018-01-21T03:31:02.246Z,5.39
2018-01-21T03:31:28.346Z,5.47
2018-01-21T03:31:54.443Z,5.36
2018-01-21T03:32:20.541Z,5.44
2018-01-21T03:32:46.642Z,5.47
2018-01-21T03:33:12.750Z,5.33
2018-01-21T03:33:38.847Z,5.38
2018-01-21T03:34:04.944Z,5.44
2018-01-21T03:34:31.045Z,5.38
2018-01-21T03:34:57.139Z,5.35
2018-01-21T03:35:23.237Z,5.33
2018-01-21T03:35:49.340Z,5.33
2018-01-21T03:36:15.440Z,5.38
2018-01-21T03:36:41.538Z,5.33
2018-01-21T03:37:07.644Z,5.39
2018-01-21T03:37:33.757Z,5.38
2018-01-21T03:37:59.852Z,5.39
2018-01-21T03:38:25.952Z,5.41
2018-01-21T03:38:52.070Z,5.41
2018-01-21T03:39:18.194Z,5.38
2018-01-21T03:39:44.290Z,5.43
2018-01-21T03:40:10.394Z,5.38
2018-01-21T03:40:36.486Z,5.39
2018-01-21T03:41:02.588Z,5.39
2018-01-21T03:41:28.691Z,5.35
2018-01-21T03:41:54.786Z,5.36
2018-01-21T03:42:20.886Z,5.38
2018-01-21T03:42:46.993Z,5.29
2018-01-21T03:43:13.085Z,5.29
2018-01-21T03:43:39.188Z,5.32
2018-01-21T03:44:05.305Z,5.25
2018-01-21T03:44:31.406Z,5.18
2018-01-21T03:44:57.505Z,5.15
2018-01-21T03:45:23.604Z,5.12
2018-01-21T03:45:49.700Z,5.11
2018-01-21T03:46:15.802Z,5.11
2018-01-21T03:46:41.901Z,5.14
2018-01-21T03:47:07.996Z,5.14
2018-01-21T03:47:34.099Z,5.1
2018-01-21T03:48:00.198Z,5.15
2018-01-21T03:48:26.291Z,5.23
2018-01-21T03:48:52.392Z,5.17
2018-01-21T03:49:18.489Z,5.12
2018-01-21T03:49:44.594Z,5.12
2018-01-21T03:50:10.689Z,5.15
2018-01-21T03:50:36.792Z,5.12
2018-01-21T03:51:02.892Z,5.14
2018-01-21T03:51:28.985Z,5.1
2018-01-21T03:51:55.090Z,5.2
2018-01-21T03:52:21.204Z,5.07
2018-01-21T03:52:47.301Z,4.97
2018-01-21T03:53:13.406Z,5.11
2018-01-21T03:53:39.503Z,5.1
2018-01-21T03:54:05.608Z,5.11
2018-01-21T03:54:31.698Z,5.11
2018-01-21T03:54:57.798Z,5.1
2018-01-21T03:55:23.899Z,5.02
2018-01-21T03:55:49.998Z,5.04
2018-01-21T03:56:16.096Z,5.04
2018-01-21T03:56:42.191Z,5.08
2018-01-21T03:57:08.297Z,5.02
2018-01-21T03:57:34.404Z,5.08
2018-01-21T03:58:00.502Z,4.89
2018-01-21T03:58:26.620Z,4.96
2018-01-21T03:58:52.719Z,4.86
2018-01-21T03:59:18.820Z,4.9
2018-01-21T03:59:44.926Z,4.9
2018-01-21T04:00:11.026Z,4.9
2018-01-21T04:00:37.122Z,4.94
2018-01-21T04:01:03.220Z,4.99
2018-01-21T04:01:29.340Z,4.96
2018-01-21T04:01:55.440Z,5.07
2018-01-21T04:02:21.534Z,5.05
2018-01-21T04:02:47.636Z,5.05
2018-01-21T04:03:13.736Z,5.08
2018-01-21T04:03:39.839Z,5
2018-01-21T04:04:05.934Z,4.94
2018-01-21T04:04:32.032Z,5
2018-01-21T04:04:58.152Z,5.02
2018-01-21T04:05:24.248Z,5.07
2018-01-21T04:05:50.351Z,5.07
2018-01-21T04:06:16.446Z,5
2018-01-21T04:06:42.546Z,5.14
2018-01-21T04:07:08.655Z,5.14
2018-01-21T04:07:34.750Z,5.08
2018-01-21T04:08:00.848Z,5.07
2018-01-21T04:08:26.946Z,5.02
2018-01-21T04:08:53.043Z,5.02
2018-01-21T04:09:19.143Z,5
2018-01-21T04:09:45.241Z,5.07
2018-01-21T04:10:11.343Z,4.99
2018-01-21T04:10:37.438Z,5.05
2018-01-21T04:11:03.540Z,4.93
2018-01-21T04:11:29.638Z,4.93
2018-01-21T04:11:55.740Z,4.9
2018-01-21T04:12:21.836Z,4.9
2018-01-21T04:12:47.940Z,4.9
2018-01-21T04:13:14.039Z,4.94
2018-01-21T04:13:40.135Z,4.94
2018-01-21T04:14:06.295Z,4.96
2018-01-21T04:14:32.339Z,4.86
2018-01-21T04:14:58.434Z,4.87
2018-01-21T04:15:24.535Z,4.96
2018-01-21T04:15:50.632Z,4.82
2018-01-21T04:16:16.733Z,4.78
2018-01-21T04:16:42.836Z,4.84
2018-01-21T04:17:08.938Z,4.84
2018-01-21T04:17:35.040Z,4.86
2018-01-21T04:18:01.134Z,4.84
2018-01-21T04:18:27.248Z,4.84
2018-01-21T04:18:53.351Z,4.74
2018-01-21T04:19:19.469Z,4.77
2018-01-21T04:19:45.563Z,4.77
2018-01-21T04:20:11.660Z,4.9
2018-01-21T04:20:37.764Z,4.8
2018-01-21T04:21:03.863Z,4.75
2018-01-21T04:21:29.960Z,4.78
2018-01-21T04:21:56.064Z,4.78
2018-01-21T04:22:22.169Z,4.74
2018-01-21T04:22:48.280Z,4.82
2018-01-21T04:23:14.375Z,4.77
2018-01-21T04:23:40.479Z,4.75
2018-01-21T04:24:06.587Z,4.8
2018-01-21T04:24:32.682Z,4.84
2018-01-21T04:24:58.779Z,4.74
2018-01-21T04:25:24.874Z,4.75
2018-01-21T04:25:50.970Z,4.77
2018-01-21T04:26:17.072Z,4.77
2018-01-21T04:26:43.173Z,4.84
2018-01-21T04:27:09.282Z,4.82
2018-01-21T04:27:35.378Z,4.71
2018-01-21T04:28:01.481Z,4.8
2018-01-21T04:28:27.578Z,4.8
2018-01-21T04:28:53.687Z,4.77
2018-01-21T04:29:19.781Z,4.74
2018-01-21T04:29:45.881Z,4.73
2018-01-21T04:30:11.996Z,4.7
2018-01-21T04:30:38.090Z,4.73
2018-01-21T04:31:04.190Z,4.82
2018-01-21T04:31:30.309Z,4.75
2018-01-21T04:31:56.405Z,4.7
2018-01-21T04:32:22.509Z,4.67
2018-01-21T04:32:48.611Z,4.7
2018-01-21T04:33:14.724Z,4.67
2018-01-21T04:33:40.825Z,4.66
2018-01-21T04:34:06.919Z,4.7
2018-01-21T04:34:33.024Z,4.77
2018-01-21T04:34:59.119Z,4.66
2018-01-21T04:35:25.233Z,4.71
2018-01-21T04:35:51.354Z,4.63
2018-01-21T04:36:17.455Z,4.73
2018-01-21T04:36:43.569Z,4.74
2018-01-21T04:37:09.672Z,4.71
2018-01-21T04:37:35.767Z,4.73
2018-01-21T04:38:01.867Z,4.7
2018-01-21T04:38:27.965Z,4.73
2018-01-21T04:38:54.086Z,4.75
2018-01-21T04:39:20.182Z,4.82
2018-01-21T04:39:46.273Z,4.77
2018-01-21T04:40:12.376Z,4.77
2018-01-21T04:40:38.472Z,4.82
2018-01-21T04:41:04.569Z,4.77
2018-01-21T04:41:30.671Z,4.7
2018-01-21T04:41:56.777Z,4.77
2018-01-21T04:42:22.871Z,4.73
2018-01-21T04:42:48.990Z,4.74
2018-01-21T04:43:15.095Z,4.63
2018-01-21T04:43:41.190Z,4.63
2018-01-21T04:44:07.296Z,4.68
2018-01-21T04:44:33.392Z,4.7
2018-01-21T04:44:59.495Z,4.53
2018-01-21T04:45:25.593Z,4.55
2018-01-21T04:45:51.688Z,4.59
2018-01-21T04:46:17.790Z,4.67
2018-01-21T04:46:43.901Z,4.59
2018-01-21T04:47:10.004Z,4.6
2018-01-21T04:47:36.101Z,4.58
2018-01-21T04:48:02.206Z,4.6
2018-01-21T04:48:28.327Z,4.59
2018-01-21T04:48:54.423Z,4.59
2018-01-21T04:49:20.523Z,4.56
2018-01-21T04:49:46.618Z,4.59
2018-01-21T04:50:12.722Z,4.59
2018-01-21T04:50:38.816Z,4.56
2018-01-21T04:51:04.920Z,4.6
2018-01-21T04:51:31.033Z,4.59
2018-01-21T04:51:57.126Z,4.48
2018-01-21T04:52:23.230Z,4.58
2018-01-21T04:52:49.350Z,4.56
2018-01-21T04:53:15.442Z,4.59
2018-01-21T04:53:41.538Z,4.53
2018-01-21T04:54:07.639Z,4.6
2018-01-21T04:54:33.737Z,4.58
2018-01-21T04:54:59.838Z,4.6
2018-01-21T04:55:25.939Z,4.6
2018-01-21T04:55:52.033Z,4.53
2018-01-21T04:56:18.139Z,4.52
2018-01-21T04:56:44.233Z,4.55
2018-01-21T04:57:10.330Z,4.53
2018-01-21T04:57:36.431Z,4.52
2018-01-21T04:58:02.536Z,4.49
2018-01-21T04:58:28.629Z,4.56
2018-01-21T04:58:54.731Z,4.6
2018-01-21T04:59:20.845Z,4.53
2018-01-21T04:59:46.940Z,4.5
2018-01-21T05:00:13.045Z,4.5
2018-01-21T05:00:39.158Z,4.59
2018-01-21T05:01:05.285Z,4.48
2018-01-21T05:01:31.374Z,4.49
2018-01-21T05:01:57.474Z,4.48
2018-01-21T05:02:23.581Z,4.45
2018-01-21T05:02:49.676Z,4.44
2018-01-21T05:03:15.769Z,4.45
2018-01-21T05:03:41.868Z,4.4
2018-01-21T05:04:07.990Z,4.35
2018-01-21T05:04:34.091Z,4.38
2018-01-21T05:05:00.189Z,4.4
2018-01-21T05:05:26.285Z,4.32
2018-01-21T05:05:52.386Z,4.32
2018-01-21T05:06:18.479Z,4.35
2018-01-21T05:06:44.594Z,4.28
2018-01-21T05:07:10.696Z,4.31
2018-01-21T05:07:36.796Z,4.37
2018-01-21T05:08:02.890Z,4.38
2018-01-21T05:08:28.992Z,4.42
2018-01-21T05:08:55.094Z,4.49
2018-01-21T05:09:21.192Z,4.49
2018-01-21T05:09:47.311Z,4.45
2018-01-21T05:10:13.407Z,4.44
2018-01-21T05:10:39.501Z,4.42
2018-01-21T05:11:05.606Z,4.38
2018-01-21T05:11:31.701Z,4.4
2018-01-21T05:11:57.803Z,4.38
2018-01-21T05:12:23.899Z,4.34
2018-01-21T05:12:50.003Z,4.32
2018-01-21T05:13:16.151Z,4.37
2018-01-21T05:13:42.195Z,4.31
2018-01-21T05:14:08.298Z,4.34
2018-01-21T05:14:34.395Z,4.3
2018-01-21T05:15:00.512Z,4.32
2018-01-21T05:15:26.616Z,4.32
2018-01-21T05:15:52.711Z,4.38
2018-01-21T05:16:18.805Z,4.34
2018-01-21T05:16:44.916Z,4.31
2018-01-21T05:17:11.011Z,4.37
2018-01-21T05:17:37.109Z,4.42
2018-01-21T05:18:03.231Z,4.45
2018-01-21T05:18:29.326Z,4.37
2018-01-21T05:18:55.426Z,4.44
2018-01-21T05:19:21.525Z,4.5
2018-01-21T05:19:47.623Z,4.5
2018-01-21T05:20:13.725Z,4.44
2018-01-21T05:20:39.821Z,4.45
2018-01-21T05:21:05.924Z,4.41
2018-01-21T05:21:32.017Z,4.34
2018-01-21T05:21:58.136Z,4.34
2018-01-21T05:22:24.237Z,4.48
2018-01-21T05:22:50.330Z,4.38
2018-01-21T05:23:16.434Z,4.35
2018-01-21T05:23:42.529Z,4.48
2018-01-21T05:24:08.629Z,4.48
2018-01-21T05:24:34.730Z,4.48
2018-01-21T05:25:00.821Z,4.48
2018-01-21T05:25:26.927Z,4.45
2018-01-21T05:25:53.026Z,4.44
2018-01-21T05:26:19.119Z,4.37
2018-01-21T05:26:45.224Z,4.41
2018-01-21T05:27:11.312Z,4.37
2018-01-21T05:27:37.411Z,4.32
2018-01-21T05:28:03.517Z,4.34
2018-01-21T05:28:29.621Z,4.41
2018-01-21T05:28:55.722Z,4.44
2018-01-21T05:29:21.823Z,4.42
2018-01-21T05:29:47.914Z,4.38
2018-01-21T05:30:14.023Z,4.52
2018-01-21T05:30:40.139Z,4.49
2018-01-21T05:31:06.235Z,4.37
2018-01-21T05:31:32.335Z,4.32
2018-01-21T05:31:58.451Z,4.38
2018-01-21T05:32:24.549Z,4.28
2018-01-21T05:32:50.646Z,4.35
2018-01-21T05:33:16.742Z,4.32
2018-01-21T05:33:42.840Z,4.26
2018-01-21T05:34:08.952Z,4.37
2018-01-21T05:34:35.047Z,4.32
2018-01-21T05:35:01.153Z,4.32
2018-01-21T05:35:27.248Z,4.31
2018-01-21T05:35:53.350Z,4.45
2018-01-21T05:36:19.455Z,4.34
2018-01-21T05:36:45.549Z,4.35
2018-01-21T05:37:11.652Z,4.32
2018-01-21T05:37:37.747Z,4.42
2018-01-21T05:38:03.847Z,4.49
2018-01-21T05:38:29.950Z,4.41
2018-01-21T05:38:56.047Z,4.31
2018-01-21T05:39:22.148Z,4.38
2018-01-21T05:39:48.247Z,4.38
2018-01-21T05:40:14.360Z,4.42
2018-01-21T05:40:40.457Z,4.38
2018-01-21T05:41:06.559Z,4.35
2018-01-21T05:41:32.666Z,4.37
2018-01-21T05:41:58.761Z,4.37
2018-01-21T05:42:24.863Z,4.44
2018-01-21T05:42:50.977Z,4.44
2018-01-21T05:43:17.076Z,4.48
2018-01-21T05:43:43.173Z,4.52
2018-01-21T05:44:09.267Z,4.44
2018-01-21T05:44:35.370Z,4.45
2018-01-21T05:45:01.470Z,4.44
2018-01-21T05:45:27.565Z,4.28
2018-01-21T05:45:53.671Z,4.35
2018-01-21T05:46:19.765Z,4.31
2018-01-21T05:46:45.860Z,4.45
2018-01-21T05:47:11.960Z,4.37
2018-01-21T05:47:38.065Z,4.37
2018-01-21T05:48:04.167Z,4.3
2018-01-21T05:48:30.271Z,4.31